Time;durP1;ratioP1;P1;durP2;ratioP2;P2;SDS_P1;SDS_P2;PMS_P1;PMS_P2;Temp;Humidity;BMP_temperature;BMP_pressure;BME280_temperature;BME280_humidity;BME280_pressure;Samples;Min_cycle;Max_cycle;Signal;HPM_P1;HPM_P2
2021/08/30 00:02:18;;;;;;;6.78;4.47;;;;;;;18.09;71.37;102195.44;5041776;28;20418;-70
2021/08/30 00:04:44;;;;;;;6.20;3.10;;;;;;;18.14;71.07;102196.06;5042483;28;20032;-70
2021/08/30 00:07:09;;;;;;;6.82;3.70;;;;;;;18.54;69.14;102191.34;5060215;28;20041;-70
2021/08/30 00:09:34;;;;;;;6.60;3.63;;;;;;;18.34;69.57;102192.38;5059516;28;20096;-70
2021/08/30 00:12:00;;;;;;;9.23;4.72;;;;;;;17.67;73.26;102193.97;5059834;28;20051;-70
2021/08/30 00:14:25;;;;;;;6.10;4.22;;;;;;;17.63;73.41;102195.06;5059749;28;20477;-70
2021/08/30 00:16:51;;;;;;;5.38;4.28;;;;;;;18.38;70.36;102187.78;5063839;28;20036;-70
2021/08/30 00:19:16;;;;;;;5.30;3.25;;;;;;;18.14;71.04;102188.09;5063940;28;20270;-70
2021/08/30 00:21:42;;;;;;;7.22;4.30;;;;;;;18.15;71.25;102189.81;5064121;28;20041;-70
2021/08/30 00:24:07;;;;;;;4.47;3.75;;;;;;;18.27;70.07;102184.84;5046225;28;20090;-70
2021/08/30 00:26:32;;;;;;;5.18;3.25;;;;;;;18.60;68.92;102188.34;5063668;28;20269;-70
2021/08/30 00:28:58;;;;;;;7.60;4.80;;;;;;;18.04;71.41;102186.84;5064114;28;20084;-70
2021/08/30 00:31:26;;;;;;;3.90;3.60;;;;;;;18.59;69.14;102194.59;5063292;28;20044;-70
2021/08/30 00:33:53;;;;;;;6.47;3.35;;;;;;;18.74;68.85;102187.63;5063829;28;20047;-70
2021/08/30 00:36:18;;;;;;;6.53;3.33;;;;;;;18.00;71.54;102196.75;5063392;28;20075;-70
2021/08/30 00:38:44;;;;;;;3.28;2.80;;;;;;;18.86;68.22;102195.88;5029543;28;20244;-70
2021/08/30 00:41:09;;;;;;;5.55;4.57;;;;;;;17.62;73.19;102193.34;5064083;28;20036;-70
2021/08/30 00:43:34;;;;;;;9.68;3.75;;;;;;;18.16;70.82;102198.63;5062932;28;20075;-70
2021/08/30 00:46:01;;;;;;;4.07;3.65;;;;;;;17.88;72.04;102199.16;5063544;28;20372;-70
2021/08/30 00:48:26;;;;;;;5.00;4.50;;;;;;;17.31;74.26;102199.25;5045323;28;20072;-70
2021/08/30 00:50:52;;;;;;;7.65;4.50;;;;;;;17.91;71.68;102201.66;5063993;28;20036;-70
2021/08/30 00:53:17;;;;;;;6.90;4.85;;;;;;;18.08;71.58;102198.16;5045053;28;20336;-70
2021/08/30 00:55:43;;;;;;;4.82;3.95;;;;;;;18.51;69.20;102199.44;5063686;28;20033;-70
2021/08/30 00:58:08;;;;;;;9.90;3.42;;;;;;;18.54;69.09;102194.00;5063510;28;20043;-70
2021/08/30 01:00:33;;;;;;;4.35;3.08;;;;;;;18.76;68.47;102191.03;5063276;28;20033;-70
2021/08/30 01:02:59;;;;;;;4.03;3.20;;;;;;;18.55;68.89;102197.50;5062758;28;20049;-70
2021/08/30 01:05:24;;;;;;;5.53;3.15;;;;;;;18.51;68.70;102196.78;5063525;28;20040;-70
2021/08/30 01:08:33;;;;;;;4.22;3.05;;;;;;;18.71;68.65;102195.72;5045716;28;20555;-70
2021/08/30 01:11:18;;;;;;;3.75;3.40;;;;;;;17.92;72.23;102200.72;5046837;28;20056;-70
2021/08/30 01:14:00;;;;;;;6.93;3.97;;;;;;;18.47;69.19;102199.69;5045894;28;20079;-70
2021/08/30 01:16:25;;;;;;;7.20;4.28;;;;;;;18.36;70.16;102202.91;5029189;28;20345;-70
2021/08/30 01:18:51;;;;;;;6.28;3.28;;;;;;;18.16;70.58;102211.91;5009470;28;20033;-70
2021/08/30 01:21:27;;;;;;;4.47;3.00;;;;;;;18.33;69.50;102209.22;5025492;28;20037;-70
2021/08/30 01:24:12;;;;;;;3.53;3.25;;;;;;;18.52;68.94;102202.94;5019293;28;20040;-70
2021/08/30 01:26:40;;;;;;;5.45;4.72;;;;;;;17.89;72.94;102214.13;5041222;28;20096;-70
2021/08/30 01:29:20;;;;;;;10.75;6.60;;;;;;;17.92;71.76;102217.50;5040216;28;20033;-70
2021/08/30 01:31:56;;;;;;;8.00;5.03;;;;;;;17.44;73.28;102214.50;5045764;28;20066;-70
2021/08/30 01:34:22;;;;;;;6.85;4.13;;;;;;;18.41;69.21;102215.00;5044785;28;20036;-70
2021/08/30 01:36:48;;;;;;;5.25;4.75;;;;;;;18.41;69.42;102224.75;5029234;28;20032;-70
2021/08/30 01:39:14;;;;;;;6.07;3.40;;;;;;;18.58;68.53;102216.75;5028236;28;20368;-70
2021/08/30 01:41:39;;;;;;;4.15;3.22;;;;;;;18.58;68.21;102215.91;5029270;28;20203;-70
2021/08/30 01:44:06;;;;;;;3.95;3.17;;;;;;;18.72;68.15;102217.81;5045428;28;20368;-70
2021/08/30 01:46:31;;;;;;;3.83;3.17;;;;;;;18.67;68.07;102209.25;5062173;28;20333;-70
2021/08/30 01:48:57;;;;;;;5.15;4.03;;;;;;;18.61;68.58;102213.09;5044582;28;20037;-70
2021/08/30 01:51:24;;;;;;;4.95;4.45;;;;;;;18.75;67.80;102202.59;5028320;28;20382;-70
2021/08/30 01:53:50;;;;;;;4.28;3.33;;;;;;;18.84;67.31;102206.56;5062865;28;20020;-71
2021/08/30 01:56:18;;;;;;;4.57;3.10;;;;;;;18.61;68.68;102208.66;5044729;28;20029;-70
2021/08/30 02:01:29;;;;;;;16.98;7.13;;;;;;;17.81;72.43;102217.16;5033436;28;20064;-70
2021/08/30 02:03:55;;;;;;;8.27;6.28;;;;;;;18.09;71.02;102214.00;5062876;28;20064;-70
2021/08/30 02:06:20;;;;;;;7.05;5.65;;;;;;;18.28;70.27;102218.34;5027908;28;20035;-70
2021/08/30 02:08:45;;;;;;;10.98;6.93;;;;;;;17.69;73.65;102213.28;5044772;28;20029;-70
2021/08/30 02:11:14;;;;;;;5.03;4.50;;;;;;;18.08;70.84;102220.25;5028360;28;20029;-70
2021/08/30 02:13:39;;;;;;;9.55;6.80;;;;;;;17.60;73.34;102219.88;5045192;28;20024;-70
2021/08/30 02:16:05;;;;;;;4.38;3.97;;;;;;;18.20;69.74;102221.41;5044915;28;20047;-70
2021/08/30 02:18:41;;;;;;;6.13;3.88;;;;;;;18.44;69.04;102219.28;5061692;28;20033;-70
2021/08/30 02:21:37;;;;;;;5.93;3.97;;;;;;;18.87;67.57;102216.19;5044745;28;20322;-70
2021/08/30 02:24:25;;;;;;;4.85;3.33;;;;;;;18.76;67.73;102219.38;5044381;28;20033;-70
2021/08/30 02:27:02;;;;;;;8.77;5.63;;;;;;;18.25;69.76;102205.28;5051699;28;20072;-70
2021/08/30 02:29:31;;;;;;;4.68;3.95;;;;;;;18.70;67.91;102203.78;5054433;28;20277;-70
2021/08/30 02:32:01;;;;;;;3.67;3.10;;;;;;;18.78;68.09;102202.44;5062158;28;20045;-70
2021/08/30 02:34:27;;;;;;;8.07;6.47;;;;;;;18.39;69.84;102208.03;5044078;28;20359;-70
2021/08/30 02:36:53;;;;;;;4.88;4.30;;;;;;;18.49;69.70;102206.63;5027974;28;20032;-70
2021/08/30 02:39:18;;;;;;;10.32;5.68;;;;;;;18.16;70.24;102191.53;5033460;28;20084;-70
2021/08/30 02:41:45;;;;;;;12.20;5.45;;;;;;;18.68;67.96;102195.03;5044466;28;20052;-70
2021/08/30 02:44:11;;;;;;;4.15;3.40;;;;;;;18.64;68.43;102202.31;5057948;28;20028;-70
2021/08/30 02:46:37;;;;;;;5.43;4.45;;;;;;;18.61;68.37;102202.50;5044644;28;20127;-70
2021/08/30 02:49:02;;;;;;;4.63;4.22;;;;;;;18.58;68.67;102195.53;5061571;28;20033;-70
2021/08/30 02:51:27;;;;;;;4.43;3.65;;;;;;;18.49;69.51;102201.31;5027255;28;20048;-70
2021/08/30 02:53:53;;;;;;;3.45;3.10;;;;;;;18.80;67.79;102197.03;5043705;28;20045;-70
2021/08/30 02:56:18;;;;;;;8.75;4.50;;;;;;;18.57;68.63;102192.97;5061399;28;20029;-72
2021/08/30 02:58:44;;;;;;;11.48;7.18;;;;;;;17.70;73.14;102201.78;5043896;28;20079;-73
2021/08/30 03:01:09;;;;;;;11.63;5.03;;;;;;;18.50;68.59;102196.88;5043918;28;20084;-73
2021/08/30 03:03:35;;;;;;;6.53;3.83;;;;;;;18.64;68.31;102188.19;5043293;28;20036;-73
2021/08/30 03:06:00;;;;;;;11.45;8.70;;;;;;;18.06;70.94;102192.09;5043600;28;20120;-73
2021/08/30 03:08:26;;;;;;;5.38;4.25;;;;;;;18.63;68.57;102186.47;5043331;28;20155;-73
2021/08/30 03:10:51;;;;;;;5.65;4.00;;;;;;;18.79;67.71;102182.94;5061393;28;20112;-73
2021/08/30 03:13:16;;;;;;;6.50;5.15;;;;;;;18.53;68.81;102184.31;5026745;28;20035;-73
2021/08/30 03:15:44;;;;;;;7.05;4.22;;;;;;;18.75;67.90;102184.00;5043388;28;20043;-73
2021/08/30 03:18:11;;;;;;;4.25;3.72;;;;;;;18.73;68.10;102182.38;5043623;28;20020;-73
2021/08/30 03:20:36;;;;;;;10.90;5.00;;;;;;;18.67;67.88;102170.31;5043388;28;20057;-73
2021/08/30 03:23:02;;;;;;;8.38;3.90;;;;;;;18.74;67.74;102171.69;5026895;28;20052;-73
2021/08/30 03:25:32;;;;;;;6.22;4.72;;;;;;;18.54;68.50;102166.63;5060573;28;20260;-73
2021/08/30 03:27:58;;;;;;;5.20;4.63;;;;;;;18.64;68.00;102170.47;5044000;28;20028;-73
2021/08/30 03:30:23;;;;;;;6.20;4.15;;;;;;;18.67;67.83;102170.31;5060265;28;20096;-73
2021/08/30 03:32:49;;;;;;;4.50;3.60;;;;;;;18.83;67.62;102166.84;5027061;28;20044;-73
2021/08/30 03:35:14;;;;;;;4.85;4.32;;;;;;;18.71;67.63;102163.03;5026231;28;20096;-73
2021/08/30 03:37:41;;;;;;;6.80;6.13;;;;;;;18.28;69.47;102162.66;5043347;28;20024;-73
2021/08/30 03:40:07;;;;;;;4.18;3.83;;;;;;;18.56;68.56;102162.94;5043248;28;20047;-73
2021/08/30 03:42:32;;;;;;;9.43;6.85;;;;;;;18.66;67.74;102159.78;5026356;28;20041;-73
2021/08/30 03:44:58;;;;;;;8.45;4.13;;;;;;;18.74;67.44;102162.88;5026479;28;20049;-73
2021/08/30 03:47:23;;;;;;;6.53;4.07;;;;;;;18.63;67.80;102159.94;5060194;28;20068;-73
2021/08/30 03:49:49;;;;;;;5.70;4.07;;;;;;;18.72;67.71;102162.97;5042469;28;20087;-73
2021/08/30 03:52:14;;;;;;;8.07;5.32;;;;;;;18.83;67.10;102164.19;5026132;28;20032;-73
2021/08/30 03:54:40;;;;;;;7.38;5.38;;;;;;;18.47;68.47;102163.41;5043193;28;20085;-73
2021/08/30 03:57:05;;;;;;;4.22;3.83;;;;;;;18.62;68.13;102159.09;5061066;28;20334;-73
2021/08/30 03:59:33;;;;;;;4.55;4.15;;;;;;;18.48;68.58;102166.91;5060236;28;20041;-74
2021/08/30 04:01:59;;;;;;;5.63;4.25;;;;;;;18.75;67.24;102168.09;5042938;28;20274;-74
2021/08/30 04:04:24;;;;;;;4.13;3.83;;;;;;;18.73;67.48;102169.13;5042126;28;20029;-74
2021/08/30 04:06:50;;;;;;;4.00;3.63;;;;;;;18.77;67.58;102170.66;5060799;28;20032;-75
2021/08/30 04:09:20;;;;;;;14.80;7.88;;;;;;;18.42;68.47;102174.25;5022573;28;20225;-73
2021/08/30 04:11:46;;;;;;;13.48;7.03;;;;;;;18.39;69.75;102173.56;5040753;28;20037;-73
2021/08/30 04:14:12;;;;;;;10.45;7.43;;;;;;;18.09;70.68;102170.72;5022197;28;20088;-73
2021/08/30 04:16:39;;;;;;;9.68;6.97;;;;;;;18.35;69.61;102185.28;5039783;28;20124;-73
2021/08/30 04:19:04;;;;;;;7.15;4.10;;;;;;;18.51;68.92;102185.34;5042451;28;20375;-73
2021/08/30 04:21:30;;;;;;;5.80;4.80;;;;;;;18.59;68.77;102176.03;5060048;28;20032;-73
2021/08/30 04:23:55;;;;;;;5.15;4.43;;;;;;;18.72;67.99;102176.22;5060307;28;20072;-73
2021/08/30 04:26:20;;;;;;;8.35;6.15;;;;;;;18.40;68.74;102180.59;5060223;28;20017;-73
2021/08/30 04:28:46;;;;;;;5.82;4.75;;;;;;;18.57;68.41;102187.66;5042610;28;20036;-73
2021/08/30 04:31:11;;;;;;;13.88;9.20;;;;;;;17.68;71.90;102178.91;5059949;28;20395;-73
2021/08/30 04:33:37;;;;;;;4.15;3.85;;;;;;;18.61;68.61;102178.63;5060424;28;20133;-73
2021/08/30 04:36:02;;;;;;;9.20;4.25;;;;;;;18.47;68.73;102179.34;5060167;28;20032;-73
2021/08/30 04:38:28;;;;;;;10.57;4.65;;;;;;;18.59;68.23;102175.16;5059820;28;20040;-73
2021/08/30 04:40:53;;;;;;;5.57;4.35;;;;;;;18.63;68.23;102171.41;5059953;28;20144;-73
2021/08/30 04:43:18;;;;;;;17.13;11.38;;;;;;;18.13;69.62;102175.78;5059611;28;20025;-73
2021/08/30 04:45:44;;;;;;;6.15;4.80;;;;;;;18.70;67.71;102178.13;5060078;28;20102;-73
2021/08/30 04:48:09;;;;;;;6.72;4.55;;;;;;;18.45;68.70;102183.03;5060067;28;20041;-73
2021/08/30 04:50:35;;;;;;;13.70;9.90;;;;;;;18.27;69.15;102180.38;5041863;28;20037;-73
2021/08/30 04:53:00;;;;;;;4.78;4.38;;;;;;;18.67;67.64;102175.63;5042650;28;20037;-73
2021/08/30 04:55:26;;;;;;;17.52;9.77;;;;;;;18.46;68.58;102179.41;5041695;28;20029;-73
2021/08/30 04:57:51;;;;;;;9.90;6.00;;;;;;;18.61;67.91;102171.50;5042157;28;20367;-73
2021/08/30 05:00:17;;;;;;;4.38;3.70;;;;;;;18.74;67.48;102176.16;5059735;28;20044;-73
2021/08/30 05:02:42;;;;;;;18.90;11.10;;;;;;;17.56;72.54;102191.84;5063295;28;20336;-73
2021/08/30 05:05:08;;;;;;;20.27;12.43;;;;;;;16.10;78.80;102207.22;5045901;28;20035;-73
2021/08/30 05:07:33;;;;;;;30.42;13.68;;;;;;;15.88;79.99;102209.91;5045384;28;20025;-73
2021/08/30 05:09:58;;;;;;;14.50;8.80;;;;;;;16.85;75.02;102202.25;5063656;28;20324;-73
2021/08/30 05:12:27;;;;;;;8.45;4.68;;;;;;;18.09;70.08;102205.19;5063082;28;20036;-73
2021/08/30 05:14:53;;;;;;;13.38;6.80;;;;;;;18.41;68.74;102204.38;5063569;28;20071;-73
2021/08/30 05:17:19;;;;;;;15.25;8.35;;;;;;;17.84;71.16;102209.91;5045271;28;20036;-73
2021/08/30 05:19:44;;;;;;;14.65;8.23;;;;;;;18.16;69.49;102215.41;5063255;28;20338;-73
2021/08/30 05:22:10;;;;;;;11.02;8.27;;;;;;;18.12;70.36;102216.50;5063390;28;20044;-73
2021/08/30 05:24:36;;;;;;;15.93;9.30;;;;;;;18.23;69.89;102218.59;5062812;28;20336;-73
2021/08/30 05:27:01;;;;;;;18.13;9.43;;;;;;;18.25;69.35;102222.03;5045448;28;20037;-73
2021/08/30 05:29:27;;;;;;;9.70;6.72;;;;;;;18.12;70.19;102219.16;5062606;28;20224;-73
2021/08/30 05:31:52;;;;;;;12.23;6.80;;;;;;;18.59;67.89;102217.59;5063154;28;20047;-73
2021/08/30 05:34:17;;;;;;;16.35;8.88;;;;;;;18.23;69.47;102223.91;5062702;28;20098;-73
2021/08/30 05:36:43;;;;;;;9.88;4.90;;;;;;;19.01;67.58;102223.38;5062997;28;20048;-73
2021/08/30 05:39:08;;;;;;;15.73;5.72;;;;;;;18.82;68.19;102224.38;5052081;28;20299;-74
2021/08/30 05:41:33;;;;;;;18.63;5.57;;;;;;;18.72;69.60;102229.31;5054867;28;20140;-73
2021/08/30 05:43:59;;;;;;;30.92;6.13;;;;;;;18.72;70.03;102225.78;5057409;28;20255;-74
2021/08/30 05:46:24;;;;;;;23.50;5.85;;;;;;;18.75;70.52;102237.09;5058243;28;20041;-76
2021/08/30 05:48:50;;;;;;;18.30;6.70;;;;;;;18.78;70.69;102231.63;5039620;28;20271;-74
2021/08/30 05:51:15;;;;;;;24.73;6.90;;;;;;;18.84;70.61;102240.22;5026675;28;20036;-72
2021/08/30 05:53:41;;;;;;;29.15;6.57;;;;;;;18.84;70.86;102233.13;5042456;28;20036;-73
2021/08/30 05:56:07;;;;;;;37.13;8.23;;;;;;;18.81;71.14;102235.97;5059182;28;20103;-73
2021/08/30 05:58:33;;;;;;;14.05;7.05;;;;;;;18.88;70.73;102233.81;5042512;28;20233;-73
2021/08/30 06:00:58;;;;;;;22.50;7.38;;;;;;;18.87;70.75;102235.63;5059863;28;20060;-73
2021/08/30 06:03:24;;;;;;;41.65;8.18;;;;;;;18.95;70.68;102229.88;5044313;28;20037;-73
2021/08/30 06:05:49;;;;;;;26.85;6.60;;;;;;;18.96;70.88;102226.31;5039795;28;20109;-72
2021/08/30 06:08:15;;;;;;;24.27;6.78;;;;;;;18.98;70.56;102233.25;5049033;28;20045;-73
2021/08/30 06:10:40;;;;;;;27.08;6.32;;;;;;;18.97;70.92;102228.88;5037563;28;20039;-72
2021/08/30 06:13:05;;;;;;;34.90;6.78;;;;;;;18.95;70.89;102241.34;5029347;28;20252;-72
2021/08/30 06:15:31;;;;;;;25.67;6.50;;;;;;;19.06;70.70;102237.28;5048092;28;20048;-72
2021/08/30 06:17:56;;;;;;;16.33;6.82;;;;;;;19.08;70.43;102235.38;5041198;28;20037;-73
2021/08/30 06:20:22;;;;;;;18.30;6.25;;;;;;;19.11;70.34;102243.19;5051888;28;20068;-74
2021/08/30 06:22:48;;;;;;;36.92;7.15;;;;;;;19.13;70.37;102241.31;5033271;28;20052;-73
2021/08/30 06:25:13;;;;;;;25.38;6.93;;;;;;;19.10;70.30;102242.34;5057796;28;20040;-73
2021/08/30 06:27:38;;;;;;;38.90;7.68;;;;;;;19.12;70.20;102244.94;5023811;28;20075;-71
2021/08/30 06:30:04;;;;;;;25.33;7.38;;;;;;;19.15;70.11;102237.63;5058196;28;20060;-71
2021/08/30 06:32:30;;;;;;;21.67;7.10;;;;;;;19.19;70.28;102243.63;5053900;28;20044;-71
2021/08/30 06:34:55;;;;;;;35.55;7.35;;;;;;;19.22;70.49;102239.94;5058583;28;20044;-71
2021/08/30 06:37:20;;;;;;;25.38;7.10;;;;;;;19.24;70.04;102238.91;5061340;28;20332;-71
2021/08/30 06:39:46;;;;;;;23.67;6.93;;;;;;;19.25;70.32;102243.31;5053628;28;20067;-71
2021/08/30 06:42:11;;;;;;;31.73;7.15;;;;;;;19.31;70.01;102244.75;5051494;28;20079;-71
2021/08/30 06:44:37;;;;;;;23.15;7.03;;;;;;;19.32;70.18;102244.69;5058773;28;20074;-71
2021/08/30 06:47:02;;;;;;;34.95;7.97;;;;;;;19.34;69.92;102236.63;5052572;28;20102;-71
2021/08/30 06:49:28;;;;;;;39.22;8.00;;;;;;;19.33;69.89;102246.38;5061188;28;20305;-72
2021/08/30 06:51:53;;;;;;;23.30;7.18;;;;;;;19.40;69.99;102246.91;5060386;28;20040;-72
2021/08/30 06:54:18;;;;;;;30.20;7.03;;;;;;;19.43;69.79;102240.53;5058455;28;20021;-72
2021/08/30 06:56:44;;;;;;;32.42;7.85;;;;;;;19.32;69.79;102244.69;5056463;28;20270;-72
2021/08/30 06:59:09;;;;;;;24.20;7.60;;;;;;;19.31;68.79;102250.06;5060057;28;20024;-71
2021/08/30 07:01:35;;;;;;;20.15;7.43;;;;;;;19.38;69.04;102248.78;5060173;28;20037;-75
2021/08/30 07:04:01;;;;;;;34.95;7.22;;;;;;;19.39;69.38;102253.13;5075627;28;20052;-73
2021/08/30 07:06:26;;;;;;;25.63;7.22;;;;;;;19.47;69.56;102255.41;5051688;28;20029;-74
2021/08/30 07:08:52;;;;;;;23.98;8.15;;;;;;;19.47;69.39;102248.28;5040425;28;20075;-72
2021/08/30 07:11:17;;;;;;;35.50;8.07;;;;;;;19.52;69.59;102256.00;5047111;28;20040;-72
2021/08/30 07:13:43;;;;;;;32.28;8.43;;;;;;;19.52;69.61;102251.53;5062832;28;20051;-74
2021/08/30 07:16:08;;;;;;;41.47;7.88;;;;;;;19.57;69.57;102251.25;5057484;28;20048;-74
2021/08/30 07:18:33;;;;;;;59.50;9.18;;;;;;;19.58;69.82;102249.47;5042364;28;20554;-73
2021/08/30 07:20:59;;;;;;;34.85;8.70;;;;;;;19.59;70.22;102246.72;5060155;28;20049;-73
2021/08/30 07:23:24;;;;;;;46.92;8.23;;;;;;;19.62;70.22;102251.00;5056704;28;20331;-73
2021/08/30 07:25:50;;;;;;;35.20;8.20;;;;;;;19.67;70.34;102251.63;5032563;28;20350;-72
2021/08/30 07:28:15;;;;;;;41.13;8.75;;;;;;;19.70;69.90;102251.41;5058608;28;20059;-73
2021/08/30 07:30:41;;;;;;;46.17;8.35;;;;;;;19.73;69.89;102244.16;5059822;28;20029;-72
2021/08/30 07:33:06;;;;;;;50.00;9.98;;;;;;;19.70;69.80;102243.44;5060375;28;20043;-73
2021/08/30 07:35:31;;;;;;;41.63;9.35;;;;;;;19.79;70.14;102248.25;5066954;28;20045;-73
2021/08/30 07:37:57;;;;;;;38.90;8.77;;;;;;;19.92;69.83;102253.75;5053692;28;20024;-73
2021/08/30 07:40:22;;;;;;;47.35;8.50;;;;;;;19.98;69.16;102240.09;5055163;28;20045;-72
2021/08/30 07:42:48;;;;;;;39.25;9.02;;;;;;;20.04;69.03;102245.03;5062526;28;20032;-72
2021/08/30 07:45:13;;;;;;;36.90;8.40;;;;;;;20.10;68.48;102246.47;5056552;28;20071;-72
2021/08/30 07:47:41;;;;;;;38.70;8.43;;;;;;;20.13;68.21;102255.13;5060025;28;20063;-72
2021/08/30 07:50:07;;;;;;;63.10;9.90;;;;;;;20.17;68.05;102255.81;5042103;28;20032;-72
2021/08/30 07:52:32;;;;;;;31.80;9.05;;;;;;;20.18;68.20;102264.69;5056570;28;20040;-73
2021/08/30 07:54:58;;;;;;;39.97;8.57;;;;;;;20.14;68.41;102264.84;5057527;28;20378;-72
2021/08/30 07:57:23;;;;;;;44.13;9.02;;;;;;;20.17;68.08;102268.28;5059474;28;20096;-73
2021/08/30 07:59:48;;;;;;;33.88;9.23;;;;;;;20.18;67.69;102272.66;5054951;28;20104;-75
2021/08/30 08:02:14;;;;;;;21.73;11.98;;;;;;;19.09;69.35;102272.47;5039572;28;20073;-75
2021/08/30 08:04:39;;;;;;;20.90;7.38;;;;;;;19.61;68.72;102279.41;5046267;28;20104;-75
2021/08/30 08:07:05;;;;;;;31.20;9.48;;;;;;;19.48;69.17;102283.66;5061602;28;20046;-74
2021/08/30 08:09:30;;;;;;;22.98;11.52;;;;;;;18.89;71.06;102285.97;5058880;28;20269;-75
2021/08/30 08:11:56;;;;;;;17.38;6.78;;;;;;;19.36;68.70;102282.56;5040807;28;20028;-75
2021/08/30 08:14:21;;;;;;;20.73;8.88;;;;;;;19.89;66.90;102284.03;5058492;28;20060;-76
2021/08/30 08:16:47;;;;;;;19.85;11.02;;;;;;;18.49;71.94;102283.56;5059495;28;20324;-76
2021/08/30 08:19:14;;;;;;;21.30;9.07;;;;;;;19.42;68.76;102282.19;5058981;28;20035;-76
2021/08/30 08:21:40;;;;;;;23.95;9.73;;;;;;;18.91;70.71;102282.28;5042224;28;20032;-76
2021/08/30 08:24:06;;;;;;;18.20;12.88;;;;;;;17.77;75.52;102282.69;5042403;28;20332;-76
2021/08/30 08:26:32;;;;;;;20.98;12.20;;;;;;;17.92;74.90;102288.16;5040630;28;20447;-75
2021/08/30 08:28:57;;;;;;;20.80;11.68;;;;;;;18.02;74.75;102281.50;5058551;28;20059;-76
2021/08/30 08:31:23;;;;;;;17.52;11.60;;;;;;;18.27;73.72;102286.44;5058224;28;20087;-76
2021/08/30 08:33:49;;;;;;;20.02;9.00;;;;;;;18.90;70.68;102287.66;5057829;28;20119;-75
2021/08/30 08:36:16;;;;;;;17.85;11.27;;;;;;;18.37;73.50;102290.34;5058768;28;20332;-75
2021/08/30 08:38:41;;;;;;;21.58;10.55;;;;;;;19.23;69.38;102284.16;5044621;28;20031;-76
2021/08/30 08:41:07;;;;;;;17.05;9.32;;;;;;;19.11;69.59;102283.03;5055223;28;20060;-76
2021/08/30 08:43:33;;;;;;;16.30;9.15;;;;;;;18.77;71.43;102285.66;5044041;28;20139;-76
2021/08/30 08:45:58;;;;;;;15.05;9.40;;;;;;;18.87;70.69;102282.53;5046149;28;20032;-76
2021/08/30 08:48:24;;;;;;;14.82;8.23;;;;;;;19.43;68.41;102278.63;5060202;28;20045;-76
2021/08/30 08:50:49;;;;;;;15.95;8.50;;;;;;;19.74;67.04;102283.09;5041090;28;20029;-76
2021/08/30 08:53:15;;;;;;;11.70;8.63;;;;;;;19.35;69.24;102275.50;5045509;28;20051;-76
2021/08/30 08:55:40;;;;;;;17.75;8.43;;;;;;;19.71;66.70;102277.91;5040059;28;20193;-76
2021/08/30 08:58:14;;;;;;;19.38;9.50;;;;;;;19.30;68.86;102278.44;5057881;28;20392;-76
2021/08/30 09:00:40;;;;;;;18.20;10.68;;;;;;;18.33;73.29;102274.66;5039516;28;20210;-76
2021/08/30 09:03:19;;;;;;;17.92;9.45;;;;;;;19.61;67.85;102273.19;5058247;28;20331;-76
2021/08/30 09:05:44;;;;;;;20.45;9.80;;;;;;;18.85;70.52;102277.31;5061988;28;20100;-76
2021/08/30 09:08:32;;;;;;;16.38;10.00;;;;;;;19.28;69.41;102274.13;5054192;28;20037;-76
2021/08/30 09:11:00;;;;;;;11.90;9.75;;;;;;;19.40;68.81;102273.47;5040880;28;20025;-76
2021/08/30 09:13:29;;;;;;;;;;;;;;;18.65;72.34;102274.81;5079228;28;20082;-76
2021/08/30 09:15:55;;;;;;;15.63;8.10;;;;;;;19.39;68.85;102274.38;5065617;28;19912;-76
2021/08/30 09:18:22;;;;;;;19.45;10.57;;;;;;;18.55;72.00;102275.28;5048157;28;20081;-76
2021/08/30 09:20:47;;;;;;;20.63;10.18;;;;;;;18.73;72.52;102277.91;5065679;28;20040;-76
2021/08/30 09:23:15;;;;;;;15.00;8.48;;;;;;;19.59;67.52;102277.75;5082506;28;20041;-76
2021/08/30 09:25:40;;;;;;;15.68;8.82;;;;;;;19.32;68.82;102275.69;5049068;28;20320;-76
2021/08/30 09:28:06;;;;;;;16.08;8.52;;;;;;;19.08;69.66;102277.88;5059002;28;20059;-76
2021/08/30 09:30:31;;;;;;;13.07;7.97;;;;;;;19.64;67.64;102273.88;5056001;28;20035;-76
2021/08/30 09:32:58;;;;;;;10.32;7.63;;;;;;;19.64;67.55;102281.00;5028472;28;20319;-76
2021/08/30 09:35:24;;;;;;;16.40;6.78;;;;;;;19.87;66.73;102279.75;5043082;28;20039;-76
2021/08/30 09:37:49;;;;;;;14.25;8.20;;;;;;;19.80;67.66;102286.34;5078815;28;20032;-76
2021/08/30 09:40:16;;;;;;;11.90;7.47;;;;;;;19.68;68.01;102285.19;5061022;28;20036;-76
2021/08/30 09:42:53;;;;;;;17.80;6.90;;;;;;;19.64;68.07;102278.34;5060252;28;20052;-76
2021/08/30 09:45:20;;;;;;;11.30;7.32;;;;;;;19.73;67.79;102281.38;5045910;28;20115;-76
2021/08/30 09:47:56;;;;;;;13.27;8.57;;;;;;;19.15;70.83;102272.13;5043547;28;20038;-75
2021/08/30 09:50:36;;;;;;;23.33;10.10;;;;;;;18.90;72.61;102272.63;5003483;28;20056;-76
2021/08/30 09:53:02;;;;;;;24.17;9.45;;;;;;;18.82;72.73;102271.31;5051339;28;20037;-76
2021/08/30 09:55:28;;;;;;;22.90;9.63;;;;;;;19.00;72.62;102275.63;5044991;28;20100;-76
2021/08/30 09:57:54;;;;;;;14.60;8.63;;;;;;;19.40;70.52;102273.47;5017256;28;20337;-76
2021/08/30 10:00:20;;;;;;;20.15;9.80;;;;;;;19.29;70.04;102267.91;5033798;28;20036;-76
2021/08/30 10:02:53;;;;;;;13.98;8.43;;;;;;;19.74;68.79;102275.13;5051970;28;20293;-76
2021/08/30 10:05:19;;;;;;;12.65;7.28;;;;;;;19.83;67.35;102280.84;5048934;28;20040;-75
2021/08/30 10:07:45;;;;;;;10.95;6.70;;;;;;;19.83;67.02;102279.06;5054283;28;20045;-75
2021/08/30 10:10:12;;;;;;;12.90;7.28;;;;;;;19.48;68.77;102273.91;5026464;28;20129;-75
2021/08/30 10:12:38;;;;;;;25.20;10.27;;;;;;;19.47;69.42;102268.69;5021844;28;20045;-75
2021/08/30 10:15:04;;;;;;;15.80;8.63;;;;;;;19.46;69.55;102272.25;5024957;28;20041;-75
2021/08/30 10:17:29;;;;;;;20.80;9.85;;;;;;;19.06;70.93;102274.44;5005163;28;20037;-75
2021/08/30 10:20:02;;;;;;;20.05;9.77;;;;;;;19.30;69.89;102275.78;5025189;28;20089;-76
2021/08/30 10:22:27;;;;;;;16.05;8.18;;;;;;;19.23;70.95;102270.88;5040690;28;20329;-76
2021/08/30 10:24:53;;;;;;;10.98;6.55;;;;;;;19.75;67.38;102268.88;5020663;28;20064;-76
2021/08/30 10:27:29;;;;;;;12.27;8.13;;;;;;;19.74;67.71;102274.28;5041767;28;20047;-74
2021/08/30 10:30:10;;;;;;;10.60;7.15;;;;;;;19.91;66.91;102273.31;5044999;28;20246;-74
2021/08/30 10:32:37;;;;;;;9.15;6.43;;;;;;;19.63;67.77;102282.81;5048972;28;20045;-74
2021/08/30 10:35:13;;;;;;;10.35;7.80;;;;;;;19.52;69.22;102278.09;5044495;28;20045;-75
2021/08/30 10:37:49;;;;;;;20.10;8.75;;;;;;;19.54;70.58;102275.38;5029070;28;20039;-74
2021/08/30 10:40:18;;;;;;;13.85;6.63;;;;;;;19.64;68.00;102279.19;5013849;28;20032;-74
2021/08/30 10:42:44;;;;;;;10.45;7.70;;;;;;;19.83;67.68;102283.50;5014091;28;20016;-74
2021/08/30 10:45:10;;;;;;;17.80;9.23;;;;;;;19.45;68.95;102287.34;5030989;28;20099;-74
2021/08/30 10:47:36;;;;;;;12.20;6.55;;;;;;;19.94;66.67;102278.44;5008379;28;20252;-74
2021/08/30 10:50:03;;;;;;;10.95;6.20;;;;;;;19.88;66.95;102278.78;5050422;28;20029;-74
2021/08/30 10:52:38;;;;;;;14.00;7.38;;;;;;;19.97;66.66;102283.56;5059362;28;20055;-74
2021/08/30 10:55:14;;;;;;;9.77;6.72;;;;;;;20.00;66.65;102274.59;5052313;28;20040;-74
2021/08/30 10:57:40;;;;;;;7.57;5.47;;;;;;;19.89;67.07;102280.50;5063311;28;20059;-74
2021/08/30 11:00:09;;;;;;;8.68;6.28;;;;;;;19.90;67.04;102284.88;5057540;28;20036;-74
2021/08/30 11:02:37;;;;;;;12.90;7.55;;;;;;;19.89;67.87;102286.69;5050874;28;20090;-74
2021/08/30 11:05:03;;;;;;;10.70;6.77;;;;;;;20.19;66.09;102279.66;5062275;28;20041;-74
2021/08/30 11:07:28;;;;;;;15.18;9.52;;;;;;;19.65;68.59;102275.63;5060306;28;20041;-74
2021/08/30 11:09:54;;;;;;;7.05;6.35;;;;;;;20.12;65.88;102282.69;5051666;28;20081;-74
2021/08/30 11:12:19;;;;;;;14.60;7.15;;;;;;;20.19;65.76;102279.66;5044675;28;20036;-74
2021/08/30 11:14:53;;;;;;;8.15;6.53;;;;;;;20.20;65.18;102279.59;5034146;28;20056;-74
2021/08/30 11:17:27;;;;;;;10.93;6.00;;;;;;;20.39;64.94;102283.81;5039994;28;20335;-74
2021/08/30 11:19:54;;;;;;;9.27;6.32;;;;;;;20.45;64.96;102278.16;5040670;28;20084;-74
2021/08/30 11:22:20;;;;;;;9.73;6.47;;;;;;;20.44;65.04;102271.09;5039749;28;20021;-74